Sti Memphis — V7IX9 — position and weather

sailwx.info

Track history (hours):
 
Tides and Currents Weather Stations Pressure Air Temp Water Temp Dewpoint Dewpoint Depression Visibility Wind Speed Wind Dir Waves Ship Positions

Sti Memphis

Last reported at 2018-Apr-24 06:57 UTC. Time now 2018-Apr-24 12:49 UTC.
Position N 49°43' W 004°41'.

Length 183 m; draft 9.1 m.

Type: Tanker. MMSI: 538006010.

Date/timePositionNaut miles runAvg speedWind from/ knotsBaromVisibWave heightAir tempDewpointWater temp
2018-Apr-24 06:57N 49°43' W 004°41'5 9.1
2018-Apr-24 06:25N 49°43' W 004°48'3 8.7
2018-Apr-24 06:00N 49°44' W 004°54'5 7.5
2018-Apr-24 05:24N 49°42' W 004°47'4 9.1
2018-Apr-24 05:00N 49°42' W 004°42'5 8.9
2018-Apr-24 04:29N 49°41' W 004°35'4 8.8
2018-Apr-24 04:00N 49°41' W 004°28'3 5.3
2018-Apr-24 03:26N 49°41' W 004°23'2 5.2
2018-Apr-24 03:00N 49°41' W 004°27'3 5.3
2018-Apr-24 02:30N 49°41' W 004°31'3 5.5
2018-Apr-24 02:00N 49°42' W 004°35'4 6.4
2018-Apr-24 01:24N 49°42' W 004°41'3 6.9
2018-Apr-24 01:00N 49°42' W 004°45'4 7.3
2018-Apr-24 00:30N 49°43' W 004°51'4 4.6
2018-Apr-23 23:40N 49°42' W 004°45'2 4.4
2018-Apr-23 23:08N 49°42' W 004°41'2 3.9
2018-Apr-23 22:40N 49°41' W 004°39'2 3.9
2018-Apr-23 22:11N 49°41' W 004°36'6 1.4
2018-Apr-23 17:43N 49°42' W 004°26'1 1.0
2018-Apr-23 16:43N 49°43' W 004°28'1 1.2
2018-Apr-23 15:31N 49°44' W 004°29'0 2.6
2018-Apr-23 15:30N 49°44' W 004°29'3 6.4
2018-Apr-23 14:59N 49°46' W 004°25'4 5.3
2018-Apr-23 14:18N 49°49' W 004°21'0 1.2
2018-Apr-23 13:58N 49°48' W 004°21'1 1.3
2018-Apr-23 13:27N 49°48' W 004°22'1 1.3
2018-Apr-23 13:00N 49°48' W 004°23'1 1.4
2018-Apr-23 12:30N 49°47' W 004°24'1 1.5
2018-Apr-23 11:59N 49°47' W 004°25'1 1.6
2018-Apr-23 11:30N 49°46' W 004°26'1 1.7
2018-Apr-23 10:43N 49°46' W 004°28'1 1.6
2018-Apr-23 10:13N 49°45' W 004°29'0 1.5
2018-Apr-23 09:58N 49°45' W 004°29'3 1.3
2018-Apr-23 08:00N 49°43' W 004°32'5 0.7
2018-Apr-23 00:34N 49°44' W 004°24'0 4.5
2018-Apr-23 00:30N 49°44' W 004°25'0 0.1
2018-Apr-22 21:10N 49°44' W 004°25'412.0
2018-Apr-22 20:50N 49°44' W 004°31'28 6.5
2018-Apr-22 16:32N 49°46' W 003°48'1112.2
2018-Apr-22 15:40N 49°50' W 003°32'311.9
2018-Apr-22 15:25N 49°51' W 003°28'511.7
2018-Apr-22 15:00N 49°53' W 003°21'611.2
2018-Apr-22 14:30N 49°55' W 003°13'510.8
2018-Apr-22 14:00N 49°57' W 003°05'510.5
2018-Apr-22 13:30N 49°59' W 002°58'5 9.9
2018-Apr-22 13:00N 50°00' W 002°51'5 9.7
2018-Apr-22 12:30N 50°02' W 002°43'5 9.8
2018-Apr-22 12:00N 50°03' W 002°36'5 9.7
2018-Apr-22 11:30N 50°04' W 002°29'7 9.9
2018-Apr-22 10:49N 50°06' W 002°18'310.2
2018-Apr-22 10:29N 50°07' W 002°13'510.6
2018-Apr-22 10:00N 50°08' W 002°05'611.4
2018-Apr-22 09:30N 50°10' W 001°57'612.2
2018-Apr-22 09:00N 50°12' W 001°48'612.9
2018-Apr-22 08:30N 50°14' W 001°39'5 9.4
2018-Apr-22 08:00N 50°14' W 001°31'2 5.0
2018-Apr-22 07:31N 50°11' W 001°31'714.1
2018-Apr-22 07:00N 50°06' W 001°23'714.3
2018-Apr-22 06:30N 50°01' W 001°15'714.7
2018-Apr-22 06:00N 49°56' W 001°07'715.0
2018-Apr-22 05:31N 49°51' W 000°58'714.5
2018-Apr-22 05:01N 49°46' W 000°50'714.0
2018-Apr-22 04:30N 49°42' W 000°41'713.3
2018-Apr-22 04:00N 49°39' W 000°33'612.8
2018-Apr-22 03:30N 49°34' W 000°25'612.4
2018-Apr-22 03:00N 49°32' W 000°16'612.1
2018-Apr-22 02:30N 49°30' W 000°08'611.1
2018-Apr-22 02:00N 49°28' E 000°00'611.3
2018-Apr-22 01:30N 49°26' E 000°09'510.7
2018-Apr-22 01:00N 49°26' E 000°17'5 9.9
2018-Apr-22 00:30N 49°27' E 000°24'4 9.0
2018-Apr-22 00:00N 49°29' E 000°30'3 6.1
2018-Apr-21 23:31N 49°27' E 000°33'4 7.4
2018-Apr-21 23:00N 49°27' E 000°39'5 9.9
2018-Apr-21 22:30N 49°31' E 000°43'4 7.5
2018-Apr-21 22:00N 49°29' E 000°47'4 8.2
2018-Apr-21 21:30N 49°25' E 000°48'2 4.7
2018-Apr-21 21:00N 49°26' E 000°52'4 7.5
2018-Apr-21 20:30N 49°29' E 000°55'4 8.9
2018-Apr-21 20:00N 49°25' E 000°56'4 7.6
2018-Apr-21 19:30N 49°21' E 000°58'1 2.5
2018-Apr-21 19:00N 49°22' E 000°60'0 0.2
2018-Apr-21 18:30N 49°22' E 000°60'0 0.0
2018-Apr-21 18:00N 49°22' E 000°60'0 0.0
2018-Apr-21 17:30N 49°22' E 000°60'0 0.0
2018-Apr-21 17:00N 49°22' E 000°60'0 0.0
2018-Apr-21 16:27N 49°22' E 000°60'0 0.0
2018-Apr-21 15:57N 49°22' E 000°60'0 0.0
2018-Apr-21 15:30N 49°22' E 000°60'0 0.0
2018-Apr-21 15:00N 49°22' E 000°60'0 0.0
2018-Apr-21 14:30N 49°22' E 000°60'0 0.0
2018-Apr-21 14:00N 49°22' E 000°60'0 0.0
2018-Apr-21 13:30N 49°22' E 000°60'0 0.0
2018-Apr-21 13:00N 49°22' E 000°60'0 0.0
2018-Apr-21 12:30N 49°22' E 000°60'0 0.0
2018-Apr-21 11:57N 49°22' E 000°60'0 0.0
2018-Apr-21 11:30N 49°22' E 000°60'0 0.0
2018-Apr-21 10:51N 49°22' E 000°60'0 0.0
2018-Apr-21 10:30N 49°22' E 000°60'0 0.0
2018-Apr-21 09:57N 49°22' E 000°60'0 0.0
2018-Apr-21 09:30N 49°22' E 000°60'0 0.0
2018-Apr-21 09:00N 49°22' E 000°60'0 0.0
2018-Apr-21 08:30N 49°22' E 000°60'0 0.0
2018-Apr-21 08:00N 49°22' E 000°60'0 0.0
2018-Apr-21 07:30N 49°22' E 000°60'0 0.0
2018-Apr-21 06:57N 49°22' E 000°60'0 0.0
2018-Apr-21 06:30N 49°22' E 000°60'0 0.0
2018-Apr-21 06:00N 49°22' E 000°60'0 0.0
2018-Apr-21 05:30N 49°22' E 000°60'0 0.0
2018-Apr-21 05:00N 49°22' E 000°60'0 0.0
2018-Apr-21 04:27N 49°22' E 000°60'0 0.0
2018-Apr-21 04:00N 49°22' E 000°60'0 0.0
2018-Apr-21 03:27N 49°22' E 000°60'0 0.0
2018-Apr-21 03:00N 49°22' E 000°60'0 0.0
2018-Apr-21 02:30N 49°22' E 000°60'0 0.0
2018-Apr-21 02:00N 49°22' E 000°60'0 0.0
2018-Apr-21 01:30N 49°22' E 000°60'0 0.0
2018-Apr-21 01:00N 49°22' E 000°60'0 0.0
2018-Apr-21 00:30N 49°22' E 000°60'0 0.0
2018-Apr-21 00:00N 49°22' E 000°60'0 0.0
2018-Apr-20 23:30N 49°22' E 000°60'0 0.0
2018-Apr-20 22:57N 49°22' E 000°60'0 0.0
2018-Apr-20 22:30N 49°22' E 000°60'0 0.0
2018-Apr-20 22:00N 49°22' E 000°60'0 0.0
2018-Apr-20 21:30N 49°22' E 000°60'0 0.0
2018-Apr-20 21:00N 49°22' E 000°60'0 0.0
2018-Apr-20 20:30N 49°22' E 000°60'0 0.0
2018-Apr-20 20:00N 49°22' E 000°60'0 0.0
2018-Apr-20 19:30N 49°22' E 000°60'0 0.0
2018-Apr-20 18:57N 49°22' E 000°60'0 0.0
2018-Apr-20 18:30N 49°22' E 000°60'0 0.0
2018-Apr-20 17:54N 49°22' E 000°60'0 0.0
2018-Apr-20 17:27N 49°22' E 000°60'0 0.0
2018-Apr-20 17:00N 49°22' E 000°60'0 0.0
2018-Apr-20 16:27N 49°22' E 000°60'0 0.0
2018-Apr-20 16:00N 49°22' E 000°60'0 0.0
2018-Apr-20 15:30N 49°22' E 000°60'0 0.0
2018-Apr-20 15:00N 49°22' E 000°60'0 0.0
2018-Apr-20 14:30N 49°22' E 000°60'0 0.0
2018-Apr-20 13:57N 49°22' E 000°60'0 0.0
2018-Apr-20 13:30N 49°22' E 000°60'0 0.0
2018-Apr-20 13:00N 49°22' E 000°60'0 0.0
2018-Apr-20 12:27N 49°22' E 000°60'0 0.0
2018-Apr-20 12:00N 49°22' E 000°60'0 0.0
2018-Apr-20 11:30N 49°22' E 000°60'0 0.0
2018-Apr-20 11:00N 49°22' E 000°60'0 0.0
2018-Apr-20 10:30N 49°22' E 000°60'0 0.0
2018-Apr-20 09:57N 49°22' E 000°60'0 0.0
2018-Apr-20 09:30N 49°22' E 000°60'0 0.0
2018-Apr-20 09:00N 49°22' E 000°60'0 0.0
2018-Apr-20 08:30N 49°22' E 000°60'0 0.0
2018-Apr-20 08:00N 49°22' E 000°60'0 0.0
2018-Apr-20 07:30N 49°22' E 000°60'0 0.0
2018-Apr-20 07:00N 49°22' E 000°60'0 0.0
2018-Apr-20 06:30N 49°22' E 000°60'0 0.0
2018-Apr-20 06:00N 49°22' E 000°60'0 0.0
2018-Apr-20 05:27N 49°22' E 000°60'0 0.0
2018-Apr-20 05:00N 49°22' E 000°60'2 4.9
2018-Apr-20 04:30N 49°21' E 000°56'5 9.9
2018-Apr-20 04:00N 49°26' E 000°56'4 7.3
2018-Apr-20 03:30N 49°29' E 000°52'5 9.8
2018-Apr-20 03:01N 49°24' E 000°51'4 7.8
2018-Apr-20 02:30N 49°27' E 000°49'5 9.8
2018-Apr-20 02:00N 49°31' E 000°45'4 8.3
2018-Apr-20 01:30N 49°29' E 000°40'4 8.8
2018-Apr-20 01:01N 49°27' E 000°34'4 8.3
2018-Apr-20 00:30N 49°29' E 000°28'612.0
2018-Apr-20 00:01N 49°26' E 000°20'510.7
2018-Apr-19 23:31N 49°26' E 000°12'611.9
2018-Apr-19 23:01N 49°27' E 000°03'510.4
2018-Apr-19 22:30N 49°29' W 000°05'713.3
2018-Apr-19 22:00N 49°31' W 000°15'815.4
2018-Apr-19 21:30N 49°33' W 000°26'815.8
2018-Apr-19 21:00N 49°36' W 000°37'815.5
2018-Apr-19 20:30N 49°40' W 000°48'815.3
2018-Apr-19 20:00N 49°43' W 000°58'815.0
2018-Apr-19 19:31N 49°47' W 001°08'713.7
2018-Apr-19 19:00N 49°51' W 001°17'612.5
2018-Apr-19 18:30N 49°54' W 001°26'611.5
2018-Apr-19 18:00N 49°57' W 001°34'510.8
2018-Apr-19 17:30N 49°58' W 001°42'5 9.9
2018-Apr-19 17:00N 49°59' W 001°49'5 9.4
2018-Apr-19 16:30N 49°59' W 001°56'5 9.1
2018-Apr-19 16:00N 49°58' W 002°03'5 9.3
2018-Apr-19 15:30N 49°58' W 002°11'5 9.7
2018-Apr-19 15:00N 49°57' W 002°18'510.7
2018-Apr-19 14:30N 49°56' W 002°26'611.6
2018-Apr-19 14:01N 49°54' W 002°35'612.1
2018-Apr-19 13:31N 49°52' W 002°44'612.4
2018-Apr-19 13:00N 49°50' W 002°53'712.6
2018-Apr-19 12:29N 49°47' W 003°02'812.4
2018-Apr-19 11:53N 49°42' W 003°11'512.6
2018-Apr-19 11:27N 49°40' W 003°18'612.7
2018-Apr-19 10:57N 49°37' W 003°27'612.6
2018-Apr-19 10:30N 49°34' W 003°34'812.6
2018-Apr-19 09:52N 49°30' W 003°45'512.8
2018-Apr-19 09:30N 49°28' W 003°51'1513.2
2018-Apr-19 08:24N 49°21' W 004°11'613.6
2018-Apr-19 07:57N 49°18' W 004°19'713.7
2018-Apr-19 07:27N 49°14' W 004°28'1114.2
2018-Apr-19 06:42N 49°09' W 004°42'1014.6
2018-Apr-19 06:03N 49°05' W 004°55'1714.6
2018-Apr-19 04:53N 48°57' W 005°18'2913.8
2018-Apr-19 02:48N 48°36' W 005°49'1013.5
2018-Apr-19 02:05N 48°28' W 005°56'213.1
2018-Apr-19 01:55N 48°26' W 005°57'712.9
2018-Apr-19 01:25N 48°20' W 006°02'2011.8
2018-Apr-18 23:43N 48°02' W 006°15'2311.2
2018-Apr-18 21:38N 47°41' W 006°29'52112.0
2018-Apr-17 02:11N 39°22' W 009°57'212.7
2018-Apr-17 02:00N 39°20' W 009°57'612.8
2018-Apr-17 01:30N 39°13' W 009°58'612.9
2018-Apr-17 01:00N 39°07' W 009°58'612.7
2018-Apr-17 00:30N 39°00' W 009°59'712.9
2018-Apr-17 00:00N 38°54' W 009°59'612.8
2018-Apr-16 23:30N 38°48' W 009°58'612.2
2018-Apr-16 23:00N 38°41' W 009°58'612.2
2018-Apr-16 22:30N 38°36' W 009°56'612.0
2018-Apr-16 22:00N 38°30' W 009°54'611.7
2018-Apr-16 21:30N 38°24' W 009°52'611.5
2018-Apr-16 21:00N 38°18' W 009°51'611.8
2018-Apr-16 20:28N 38°12' W 009°49'612.0
2018-Apr-16 19:59N 38°07' W 009°47'711.8
2018-Apr-16 19:26N 38°00' W 009°45'22810.5
2018-Apr-15 21:41N 35°57' W 005°45'313.1
2018-Apr-15 21:27N 35°58' W 005°41'511.7
2018-Apr-15 21:00N 35°58' W 005°35'510.3
2018-Apr-15 20:30N 35°59' W 005°29'5 9.5
2018-Apr-15 20:01N 36°01' W 005°23'5 9.3
2018-Apr-15 19:30N 36°02' W 005°18'510.0
2018-Apr-15 19:01N 36°03' W 005°12'6 9.8
2018-Apr-15 18:25N 36°04' W 005°05'22111.2
2018-Apr-14 22:48N 37°11' W 000°43'1712.7
2018-Apr-14 21:26N 37°24' W 000°29'512.4
2018-Apr-14 21:00N 37°28' W 000°24'712.7
2018-Apr-14 20:27N 37°34' W 000°18'  
Track history (hours):
 
Tides and Currents Weather Stations Pressure Air Temp Water Temp Dewpoint Dewpoint Depression Visibility Wind Speed Wind Dir Waves Ship Positions

Sti Memphis

Last reported at 2018-Apr-24 06:57 UTC. Time now 2018-Apr-24 12:49 UTC.
Position N 49°43' W 004°41'.

Length 183 m; draft 9.1 m.

Type: Tanker. MMSI: 538006010.

Date/timePositionNaut miles runAvg speedWind from/ knotsBaromVisibWave heightAir tempDewpointWater temp
2018-Apr-24 06:57N 49°43' W 004°41'5 9.1
2018-Apr-24 06:25N 49°43' W 004°48'3 8.7
2018-Apr-24 06:00N 49°44' W 004°54'5 7.5
2018-Apr-24 05:24N 49°42' W 004°47'4 9.1
2018-Apr-24 05:00N 49°42' W 004°42'5 8.9
2018-Apr-24 04:29N 49°41' W 004°35'4 8.8
2018-Apr-24 04:00N 49°41' W 004°28'3 5.3
2018-Apr-24 03:26N 49°41' W 004°23'2 5.2
2018-Apr-24 03:00N 49°41' W 004°27'3 5.3
2018-Apr-24 02:30N 49°41' W 004°31'3 5.5
2018-Apr-24 02:00N 49°42' W 004°35'4 6.4
2018-Apr-24 01:24N 49°42' W 004°41'3 6.9
2018-Apr-24 01:00N 49°42' W 004°45'4 7.3
2018-Apr-24 00:30N 49°43' W 004°51'4 4.6
2018-Apr-23 23:40N 49°42' W 004°45'2 4.4
2018-Apr-23 23:08N 49°42' W 004°41'2 3.9
2018-Apr-23 22:40N 49°41' W 004°39'2 3.9
2018-Apr-23 22:11N 49°41' W 004°36'6 1.4
2018-Apr-23 17:43N 49°42' W 004°26'1 1.0
2018-Apr-23 16:43N 49°43' W 004°28'1 1.2
2018-Apr-23 15:31N 49°44' W 004°29'0 2.6
2018-Apr-23 15:30N 49°44' W 004°29'3 6.4
2018-Apr-23 14:59N 49°46' W 004°25'4 5.3
2018-Apr-23 14:18N 49°49' W 004°21'0 1.2
2018-Apr-23 13:58N 49°48' W 004°21'1 1.3
2018-Apr-23 13:27N 49°48' W 004°22'1 1.3
2018-Apr-23 13:00N 49°48' W 004°23'1 1.4
2018-Apr-23 12:30N 49°47' W 004°24'1 1.5
2018-Apr-23 11:59N 49°47' W 004°25'1 1.6
2018-Apr-23 11:30N 49°46' W 004°26'1 1.7
2018-Apr-23 10:43N 49°46' W 004°28'1 1.6
2018-Apr-23 10:13N 49°45' W 004°29'0 1.5
2018-Apr-23 09:58N 49°45' W 004°29'3 1.3
2018-Apr-23 08:00N 49°43' W 004°32'5 0.7
2018-Apr-23 00:34N 49°44' W 004°24'0 4.5
2018-Apr-23 00:30N 49°44' W 004°25'0 0.1
2018-Apr-22 21:10N 49°44' W 004°25'412.0
2018-Apr-22 20:50N 49°44' W 004°31'28 6.5
2018-Apr-22 16:32N 49°46' W 003°48'1112.2
2018-Apr-22 15:40N 49°50' W 003°32'311.9
2018-Apr-22 15:25N 49°51' W 003°28'511.7
2018-Apr-22 15:00N 49°53' W 003°21'611.2
2018-Apr-22 14:30N 49°55' W 003°13'510.8
2018-Apr-22 14:00N 49°57' W 003°05'510.5
2018-Apr-22 13:30N 49°59' W 002°58'5 9.9
2018-Apr-22 13:00N 50°00' W 002°51'5 9.7
2018-Apr-22 12:30N 50°02' W 002°43'5 9.8
2018-Apr-22 12:00N 50°03' W 002°36'5 9.7
2018-Apr-22 11:30N 50°04' W 002°29'7 9.9
2018-Apr-22 10:49N 50°06' W 002°18'310.2
2018-Apr-22 10:29N 50°07' W 002°13'510.6
2018-Apr-22 10:00N 50°08' W 002°05'611.4
2018-Apr-22 09:30N 50°10' W 001°57'612.2
2018-Apr-22 09:00N 50°12' W 001°48'612.9
2018-Apr-22 08:30N 50°14' W 001°39'5 9.4
2018-Apr-22 08:00N 50°14' W 001°31'2 5.0
2018-Apr-22 07:31N 50°11' W 001°31'714.1
2018-Apr-22 07:00N 50°06' W 001°23'714.3
2018-Apr-22 06:30N 50°01' W 001°15'714.7
2018-Apr-22 06:00N 49°56' W 001°07'715.0
2018-Apr-22 05:31N 49°51' W 000°58'714.5
2018-Apr-22 05:01N 49°46' W 000°50'714.0
2018-Apr-22 04:30N 49°42' W 000°41'713.3
2018-Apr-22 04:00N 49°39' W 000°33'612.8
2018-Apr-22 03:30N 49°34' W 000°25'612.4
2018-Apr-22 03:00N 49°32' W 000°16'612.1
2018-Apr-22 02:30N 49°30' W 000°08'611.1
2018-Apr-22 02:00N 49°28' E 000°00'611.3
2018-Apr-22 01:30N 49°26' E 000°09'510.7
2018-Apr-22 01:00N 49°26' E 000°17'5 9.9
2018-Apr-22 00:30N 49°27' E 000°24'4 9.0
2018-Apr-22 00:00N 49°29' E 000°30'3 6.1
2018-Apr-21 23:31N 49°27' E 000°33'4 7.4
2018-Apr-21 23:00N 49°27' E 000°39'5 9.9
2018-Apr-21 22:30N 49°31' E 000°43'4 7.5
2018-Apr-21 22:00N 49°29' E 000°47'4 8.2
2018-Apr-21 21:30N 49°25' E 000°48'2 4.7
2018-Apr-21 21:00N 49°26' E 000°52'4 7.5
2018-Apr-21 20:30N 49°29' E 000°55'4 8.9
2018-Apr-21 20:00N 49°25' E 000°56'4 7.6
2018-Apr-21 19:30N 49°21' E 000°58'1 2.5
2018-Apr-21 19:00N 49°22' E 000°60'0 0.2
2018-Apr-21 18:30N 49°22' E 000°60'0 0.0
2018-Apr-21 18:00N 49°22' E 000°60'0 0.0
2018-Apr-21 17:30N 49°22' E 000°60'0 0.0
2018-Apr-21 17:00N 49°22' E 000°60'0 0.0
2018-Apr-21 16:27N 49°22' E 000°60'0 0.0
2018-Apr-21 15:57N 49°22' E 000°60'0 0.0
2018-Apr-21 15:30N 49°22' E 000°60'0 0.0
2018-Apr-21 15:00N 49°22' E 000°60'0 0.0
2018-Apr-21 14:30N 49°22' E 000°60'0 0.0
2018-Apr-21 14:00N 49°22' E 000°60'0 0.0
2018-Apr-21 13:30N 49°22' E 000°60'0 0.0
2018-Apr-21 13:00N 49°22' E 000°60'0 0.0
2018-Apr-21 12:30N 49°22' E 000°60'0 0.0
2018-Apr-21 11:57N 49°22' E 000°60'0 0.0
2018-Apr-21 11:30N 49°22' E 000°60'0 0.0
2018-Apr-21 10:51N 49°22' E 000°60'0 0.0
2018-Apr-21 10:30N 49°22' E 000°60'0 0.0
2018-Apr-21 09:57N 49°22' E 000°60'0 0.0
2018-Apr-21 09:30N 49°22' E 000°60'0 0.0
2018-Apr-21 09:00N 49°22' E 000°60'0 0.0
2018-Apr-21 08:30N 49°22' E 000°60'0 0.0
2018-Apr-21 08:00N 49°22' E 000°60'0 0.0
2018-Apr-21 07:30N 49°22' E 000°60'0 0.0
2018-Apr-21 06:57N 49°22' E 000°60'0 0.0
2018-Apr-21 06:30N 49°22' E 000°60'0 0.0
2018-Apr-21 06:00N 49°22' E 000°60'0 0.0
2018-Apr-21 05:30N 49°22' E 000°60'0 0.0
2018-Apr-21 05:00N 49°22' E 000°60'0 0.0
2018-Apr-21 04:27N 49°22' E 000°60'0 0.0
2018-Apr-21 04:00N 49°22' E 000°60'0 0.0
2018-Apr-21 03:27N 49°22' E 000°60'0 0.0
2018-Apr-21 03:00N 49°22' E 000°60'0 0.0
2018-Apr-21 02:30N 49°22' E 000°60'0 0.0
2018-Apr-21 02:00N 49°22' E 000°60'0 0.0
2018-Apr-21 01:30N 49°22' E 000°60'0 0.0
2018-Apr-21 01:00N 49°22' E 000°60'0 0.0
2018-Apr-21 00:30N 49°22' E 000°60'0 0.0
2018-Apr-21 00:00N 49°22' E 000°60'0 0.0
2018-Apr-20 23:30N 49°22' E 000°60'0 0.0
2018-Apr-20 22:57N 49°22' E 000°60'0 0.0
2018-Apr-20 22:30N 49°22' E 000°60'0 0.0
2018-Apr-20 22:00N 49°22' E 000°60'0 0.0
2018-Apr-20 21:30N 49°22' E 000°60'0 0.0
2018-Apr-20 21:00N 49°22' E 000°60'0 0.0
2018-Apr-20 20:30N 49°22' E 000°60'0 0.0
2018-Apr-20 20:00N 49°22' E 000°60'0 0.0
2018-Apr-20 19:30N 49°22' E 000°60'0 0.0
2018-Apr-20 18:57N 49°22' E 000°60'0 0.0
2018-Apr-20 18:30N 49°22' E 000°60'0 0.0
2018-Apr-20 17:54N 49°22' E 000°60'0 0.0
2018-Apr-20 17:27N 49°22' E 000°60'0 0.0
2018-Apr-20 17:00N 49°22' E 000°60'0 0.0
2018-Apr-20 16:27N 49°22' E 000°60'0 0.0
2018-Apr-20 16:00N 49°22' E 000°60'0 0.0
2018-Apr-20 15:30N 49°22' E 000°60'0 0.0
2018-Apr-20 15:00N 49°22' E 000°60'0 0.0
2018-Apr-20 14:30N 49°22' E 000°60'0 0.0
2018-Apr-20 13:57N 49°22' E 000°60'0 0.0
2018-Apr-20 13:30N 49°22' E 000°60'0 0.0
2018-Apr-20 13:00N 49°22' E 000°60'0 0.0
2018-Apr-20 12:27N 49°22' E 000°60'0 0.0
2018-Apr-20 12:00N 49°22' E 000°60'0 0.0
2018-Apr-20 11:30N 49°22' E 000°60'0 0.0
2018-Apr-20 11:00N 49°22' E 000°60'0 0.0
2018-Apr-20 10:30N 49°22' E 000°60'0 0.0
2018-Apr-20 09:57N 49°22' E 000°60'0 0.0
2018-Apr-20 09:30N 49°22' E 000°60'0 0.0
2018-Apr-20 09:00N 49°22' E 000°60'0 0.0
2018-Apr-20 08:30N 49°22' E 000°60'0 0.0
2018-Apr-20 08:00N 49°22' E 000°60'0 0.0
2018-Apr-20 07:30N 49°22' E 000°60'0 0.0
2018-Apr-20 07:00N 49°22' E 000°60'0 0.0
2018-Apr-20 06:30N 49°22' E 000°60'0 0.0
2018-Apr-20 06:00N 49°22' E 000°60'0 0.0
2018-Apr-20 05:27N 49°22' E 000°60'0 0.0
2018-Apr-20 05:00N 49°22' E 000°60'2 4.9
2018-Apr-20 04:30N 49°21' E 000°56'5 9.9
2018-Apr-20 04:00N 49°26' E 000°56'4 7.3
2018-Apr-20 03:30N 49°29' E 000°52'5 9.8
2018-Apr-20 03:01N 49°24' E 000°51'4 7.8
2018-Apr-20 02:30N 49°27' E 000°49'5 9.8
2018-Apr-20 02:00N 49°31' E 000°45'4 8.3
2018-Apr-20 01:30N 49°29' E 000°40'4 8.8
2018-Apr-20 01:01N 49°27' E 000°34'4 8.3
2018-Apr-20 00:30N 49°29' E 000°28'612.0
2018-Apr-20 00:01N 49°26' E 000°20'510.7
2018-Apr-19 23:31N 49°26' E 000°12'611.9
2018-Apr-19 23:01N 49°27' E 000°03'510.4
2018-Apr-19 22:30N 49°29' W 000°05'713.3
2018-Apr-19 22:00N 49°31' W 000°15'815.4
2018-Apr-19 21:30N 49°33' W 000°26'815.8
2018-Apr-19 21:00N 49°36' W 000°37'815.5
2018-Apr-19 20:30N 49°40' W 000°48'815.3
2018-Apr-19 20:00N 49°43' W 000°58'815.0
2018-Apr-19 19:31N 49°47' W 001°08'713.7
2018-Apr-19 19:00N 49°51' W 001°17'612.5
2018-Apr-19 18:30N 49°54' W 001°26'611.5
2018-Apr-19 18:00N 49°57' W 001°34'510.8
2018-Apr-19 17:30N 49°58' W 001°42'5 9.9
2018-Apr-19 17:00N 49°59' W 001°49'5 9.4
2018-Apr-19 16:30N 49°59' W 001°56'5 9.1
2018-Apr-19 16:00N 49°58' W 002°03'5 9.3
2018-Apr-19 15:30N 49°58' W 002°11'5 9.7
2018-Apr-19 15:00N 49°57' W 002°18'510.7
2018-Apr-19 14:30N 49°56' W 002°26'611.6
2018-Apr-19 14:01N 49°54' W 002°35'612.1
2018-Apr-19 13:31N 49°52' W 002°44'612.4
2018-Apr-19 13:00N 49°50' W 002°53'712.6
2018-Apr-19 12:29N 49°47' W 003°02'812.4
2018-Apr-19 11:53N 49°42' W 003°11'512.6
2018-Apr-19 11:27N 49°40' W 003°18'612.7
2018-Apr-19 10:57N 49°37' W 003°27'612.6
2018-Apr-19 10:30N 49°34' W 003°34'812.6
2018-Apr-19 09:52N 49°30' W 003°45'512.8
2018-Apr-19 09:30N 49°28' W 003°51'1513.2
2018-Apr-19 08:24N 49°21' W 004°11'613.6
2018-Apr-19 07:57N 49°18' W 004°19'713.7
2018-Apr-19 07:27N 49°14' W 004°28'1114.2
2018-Apr-19 06:42N 49°09' W 004°42'1014.6
2018-Apr-19 06:03N 49°05' W 004°55'1714.6
2018-Apr-19 04:53N 48°57' W 005°18'2913.8
2018-Apr-19 02:48N 48°36' W 005°49'1013.5
2018-Apr-19 02:05N 48°28' W 005°56'213.1
2018-Apr-19 01:55N 48°26' W 005°57'712.9
2018-Apr-19 01:25N 48°20' W 006°02'2011.8
2018-Apr-18 23:43N 48°02' W 006°15'2311.2
2018-Apr-18 21:38N 47°41' W 006°29'52112.0
2018-Apr-17 02:11N 39°22' W 009°57'212.7
2018-Apr-17 02:00N 39°20' W 009°57'612.8
2018-Apr-17 01:30N 39°13' W 009°58'612.9
2018-Apr-17 01:00N 39°07' W 009°58'612.7
2018-Apr-17 00:30N 39°00' W 009°59'712.9
2018-Apr-17 00:00N 38°54' W 009°59'612.8
2018-Apr-16 23:30N 38°48' W 009°58'612.2
2018-Apr-16 23:00N 38°41' W 009°58'612.2
2018-Apr-16 22:30N 38°36' W 009°56'612.0
2018-Apr-16 22:00N 38°30' W 009°54'611.7
2018-Apr-16 21:30N 38°24' W 009°52'611.5
2018-Apr-16 21:00N 38°18' W 009°51'611.8
2018-Apr-16 20:28N 38°12' W 009°49'612.0
2018-Apr-16 19:59N 38°07' W 009°47'711.8
2018-Apr-16 19:26N 38°00' W 009°45'22810.5
2018-Apr-15 21:41N 35°57' W 005°45'313.1
2018-Apr-15 21:27N 35°58' W 005°41'511.7
2018-Apr-15 21:00N 35°58' W 005°35'510.3
2018-Apr-15 20:30N 35°59' W 005°29'5 9.5
2018-Apr-15 20:01N 36°01' W 005°23'5 9.3
2018-Apr-15 19:30N 36°02' W 005°18'510.0
2018-Apr-15 19:01N 36°03' W 005°12'6 9.8
2018-Apr-15 18:25N 36°04' W 005°05'22111.2
2018-Apr-14 22:48N 37°11' W 000°43'1712.7
2018-Apr-14 21:26N 37°24' W 000°29'512.4
2018-Apr-14 21:00N 37°28' W 000°24'712.7
2018-Apr-14 20:27N 37°34' W 000°18'  

Dump ship's entire track history